sensor_id;sensor_type;location;lat;lon;timestamp;temperature;humidity
16958;DHT22;8595;52.542;11.974;2023-09-30T00:02:21;15.80;99.90
16958;DHT22;8595;52.542;11.974;2023-09-30T00:04:49;15.80;99.90
16958;DHT22;8595;52.542;11.974;2023-09-30T00:07:16;15.60;99.90
16958;DHT22;8595;52.542;11.974;2023-09-30T00:09:43;15.70;99.90
16958;DHT22;8595;52.542;11.974;2023-09-30T00:12:09;15.60;99.90
16958;DHT22;8595;52.542;11.974;2023-09-30T00:14:36;15.50;99.90
16958;DHT22;8595;52.542;11.974;2023-09-30T00:17:09;15.50;99.90
16958;DHT22;8595;52.542;11.974;2023-09-30T00:19:36;15.50;99.90
16958;DHT22;8595;52.542;11.974;2023-09-30T00:22:04;15.50;99.90
16958;DHT22;8595;52.542;11.974;2023-09-30T00:24:31;15.40;99.90
16958;DHT22;8595;52.542;11.974;2023-09-30T00:26:58;15.40;99.90
16958;DHT22;8595;52.542;11.974;2023-09-30T00:29:24;15.30;99.90
16958;DHT22;8595;52.542;11.974;2023-09-30T00:31:52;15.20;99.90
16958;DHT22;8595;52.542;11.974;2023-09-30T00:34:19;15.30;99.90
16958;DHT22;8595;52.542;11.974;2023-09-30T00:36:46;15.20;99.90
16958;DHT22;8595;52.542;11.974;2023-09-30T00:39:15;15.20;99.90
16958;DHT22;8595;52.542;11.974;2023-09-30T00:41:41;15.20;99.90
16958;DHT22;8595;52.542;11.974;2023-09-30T00:44:08;15.10;99.90
16958;DHT22;8595;52.542;11.974;2023-09-30T00:46:36;15.00;99.90
16958;DHT22;8595;52.542;11.974;2023-09-30T00:49:04;15.00;99.90
16958;DHT22;8595;52.542;11.974;2023-09-30T00:51:31;14.90;99.90
16958;DHT22;8595;52.542;11.974;2023-09-30T00:54:00;15.00;99.90
16958;DHT22;8595;52.542;11.974;2023-09-30T00:56:30;15.00;99.90
16958;DHT22;8595;52.542;11.974;2023-09-30T00:58:57;15.00;99.90
16958;DHT22;8595;52.542;11.974;2023-09-30T01:01:24;15.00;99.90
16958;DHT22;8595;52.542;11.974;2023-09-30T01:03:51;14.80;99.90
16958;DHT22;8595;52.542;11.974;2023-09-30T01:06:18;14.80;99.90
16958;DHT22;8595;52.542;11.974;2023-09-30T01:08:45;14.80;99.90
16958;DHT22;8595;52.542;11.974;2023-09-30T01:11:12;14.70;99.90
16958;DHT22;8595;52.542;11.974;2023-09-30T01:13:41;14.70;99.90
16958;DHT22;8595;52.542;11.974;2023-09-30T01:16:09;14.60;99.90
16958;DHT22;8595;52.542;11.974;2023-09-30T01:18:37;14.50;99.90
16958;DHT22;8595;52.542;11.974;2023-09-30T01:21:05;14.50;99.90
16958;DHT22;8595;52.542;11.974;2023-09-30T01:23:34;14.50;99.90
16958;DHT22;8595;52.542;11.974;2023-09-30T01:26:02;14.40;99.90
16958;DHT22;8595;52.542;11.974;2023-09-30T01:28:30;14.30;99.90
16958;DHT22;8595;52.542;11.974;2023-09-30T01:30:58;14.40;99.90
16958;DHT22;8595;52.542;11.974;2023-09-30T01:33:24;14.30;99.90
16958;DHT22;8595;52.542;11.974;2023-09-30T01:35:51;14.30;99.90
16958;DHT22;8595;52.542;11.974;2023-09-30T01:38:18;14.30;99.90
16958;DHT22;8595;52.542;11.974;2023-09-30T01:40:47;14.20;99.90
16958;DHT22;8595;52.542;11.974;2023-09-30T01:43:14;14.10;99.90
16958;DHT22;8595;52.542;11.974;2023-09-30T01:45:41;14.10;99.90
16958;DHT22;8595;52.542;11.974;2023-09-30T01:48:08;14.20;99.90
16958;DHT22;8595;52.542;11.974;2023-09-30T01:50:36;14.20;99.90
16958;DHT22;8595;52.542;11.974;2023-09-30T01:53:03;14.30;99.90
16958;DHT22;8595;52.542;11.974;2023-09-30T01:55:32;14.20;99.90
16958;DHT22;8595;52.542;11.974;2023-09-30T01:58:00;14.20;99.90
16958;DHT22;8595;52.542;11.974;2023-09-30T02:00:27;14.30;99.90
16958;DHT22;8595;52.542;11.974;2023-09-30T02:02:54;14.20;99.90
16958;DHT22;8595;52.542;11.974;2023-09-30T02:05:22;14.10;99.90
16958;DHT22;8595;52.542;11.974;2023-09-30T02:07:49;14.10;99.90
16958;DHT22;8595;52.542;11.974;2023-09-30T02:10:16;14.00;99.90
16958;DHT22;8595;52.542;11.974;2023-09-30T02:12:44;14.00;99.90
16958;DHT22;8595;52.542;11.974;2023-09-30T02:15:12;14.00;99.90
16958;DHT22;8595;52.542;11.974;2023-09-30T02:17:39;13.90;99.90
16958;DHT22;8595;52.542;11.974;2023-09-30T02:20:11;13.90;99.90
16958;DHT22;8595;52.542;11.974;2023-09-30T02:22:41;13.90;99.90
16958;DHT22;8595;52.542;11.974;2023-09-30T02:25:10;13.90;99.90
16958;DHT22;8595;52.542;11.974;2023-09-30T02:27:39;13.90;99.90
16958;DHT22;8595;52.542;11.974;2023-09-30T02:30:08;13.80;99.90
16958;DHT22;8595;52.542;11.974;2023-09-30T02:32:38;13.80;99.90
16958;DHT22;8595;52.542;11.974;2023-09-30T02:35:05;13.70;99.90
16958;DHT22;8595;52.542;11.974;2023-09-30T02:37:32;13.70;99.90
16958;DHT22;8595;52.542;11.974;2023-09-30T02:40:02;13.70;99.90
16958;DHT22;8595;52.542;11.974;2023-09-30T02:42:31;13.70;99.90
16958;DHT22;8595;52.542;11.974;2023-09-30T02:45:00;13.70;99.90
16958;DHT22;8595;52.542;11.974;2023-09-30T02:47:27;13.60;99.90
16958;DHT22;8595;52.542;11.974;2023-09-30T02:49:57;13.70;99.90
16958;DHT22;8595;52.542;11.974;2023-09-30T02:52:24;13.60;99.90
16958;DHT22;8595;52.542;11.974;2023-09-30T02:54:51;13.50;99.90
16958;DHT22;8595;52.542;11.974;2023-09-30T02:57:18;13.60;99.90
16958;DHT22;8595;52.542;11.974;2023-09-30T02:59:45;13.60;99.90
16958;DHT22;8595;52.542;11.974;2023-09-30T03:02:11;13.40;99.90
16958;DHT22;8595;52.542;11.974;2023-09-30T03:04:38;13.40;99.90
16958;DHT22;8595;52.542;11.974;2023-09-30T03:07:06;13.50;99.90
16958;DHT22;8595;52.542;11.974;2023-09-30T03:09:34;13.40;99.90
16958;DHT22;8595;52.542;11.974;2023-09-30T03:12:01;13.30;99.90
16958;DHT22;8595;52.542;11.974;2023-09-30T03:14:29;13.40;99.90
16958;DHT22;8595;52.542;11.974;2023-09-30T03:16:57;13.30;99.90
16958;DHT22;8595;52.542;11.974;2023-09-30T03:19:24;13.50;99.90
16958;DHT22;8595;52.542;11.974;2023-09-30T03:21:51;13.30;99.90
16958;DHT22;8595;52.542;11.974;2023-09-30T03:24:19;13.30;99.90
16958;DHT22;8595;52.542;11.974;2023-09-30T03:26:47;13.40;99.90
16958;DHT22;8595;52.542;11.974;2023-09-30T03:29:13;13.40;99.90
16958;DHT22;8595;52.542;11.974;2023-09-30T03:31:40;13.40;99.90
16958;DHT22;8595;52.542;11.974;2023-09-30T03:34:07;13.30;99.90
16958;DHT22;8595;52.542;11.974;2023-09-30T03:36:34;13.30;99.90
16958;DHT22;8595;52.542;11.974;2023-09-30T03:39:01;13.30;99.90
16958;DHT22;8595;52.542;11.974;2023-09-30T03:41:32;13.30;99.90
16958;DHT22;8595;52.542;11.974;2023-09-30T03:44:00;13.40;99.90
16958;DHT22;8595;52.542;11.974;2023-09-30T03:46:28;13.30;99.90
16958;DHT22;8595;52.542;11.974;2023-09-30T03:48:55;13.40;99.90
16958;DHT22;8595;52.542;11.974;2023-09-30T03:51:23;13.40;99.90
16958;DHT22;8595;52.542;11.974;2023-09-30T03:53:51;13.30;99.90
16958;DHT22;8595;52.542;11.974;2023-09-30T03:56:18;13.40;99.90
16958;DHT22;8595;52.542;11.974;2023-09-30T03:58:46;13.40;99.90
16958;DHT22;8595;52.542;11.974;2023-09-30T04:01:14;13.40;99.90
16958;DHT22;8595;52.542;11.974;2023-09-30T04:03:42;13.40;99.90
16958;DHT22;8595;52.542;11.974;2023-09-30T04:06:09;13.30;99.90
16958;DHT22;8595;52.542;11.974;2023-09-30T04:08:36;13.40;99.90
16958;DHT22;8595;52.542;11.974;2023-09-30T04:11:04;13.30;99.90
16958;DHT22;8595;52.542;11.974;2023-09-30T04:13:31;13.30;99.90
16958;DHT22;8595;52.542;11.974;2023-09-30T04:15:58;13.30;99.90
16958;DHT22;8595;52.542;11.974;2023-09-30T04:18:25;13.30;99.90
16958;DHT22;8595;52.542;11.974;2023-09-30T04:20:52;13.30;99.90
16958;DHT22;8595;52.542;11.974;2023-09-30T04:23:19;13.20;99.90
16958;DHT22;8595;52.542;11.974;2023-09-30T04:25:47;13.30;99.90
16958;DHT22;8595;52.542;11.974;2023-09-30T04:28:15;13.20;99.90
16958;DHT22;8595;52.542;11.974;2023-09-30T04:30:47;13.20;99.90
16958;DHT22;8595;52.542;11.974;2023-09-30T04:33:17;13.30;99.90
16958;DHT22;8595;52.542;11.974;2023-09-30T04:35:44;13.20;99.90
16958;DHT22;8595;52.542;11.974;2023-09-30T04:38:11;13.20;99.90
16958;DHT22;8595;52.542;11.974;2023-09-30T04:40:38;13.30;99.90
16958;DHT22;8595;52.542;11.974;2023-09-30T04:43:05;13.30;99.90
16958;DHT22;8595;52.542;11.974;2023-09-30T04:45:32;13.30;99.90
16958;DHT22;8595;52.542;11.974;2023-09-30T04:47:59;13.30;99.90
16958;DHT22;8595;52.542;11.974;2023-09-30T04:50:29;13.30;99.90
16958;DHT22;8595;52.542;11.974;2023-09-30T04:52:56;13.30;99.90
16958;DHT22;8595;52.542;11.974;2023-09-30T04:55:23;13.30;99.90
16958;DHT22;8595;52.542;11.974;2023-09-30T04:57:50;13.30;99.90
16958;DHT22;8595;52.542;11.974;2023-09-30T05:00:19;13.20;99.90
16958;DHT22;8595;52.542;11.974;2023-09-30T05:02:50;13.10;99.90
16958;DHT22;8595;52.542;11.974;2023-09-30T05:05:17;13.20;99.90
16958;DHT22;8595;52.542;11.974;2023-09-30T05:07:47;13.10;99.90
16958;DHT22;8595;52.542;11.974;2023-09-30T05:10:14;13.00;99.90
16958;DHT22;8595;52.542;11.974;2023-09-30T05:12:43;13.10;99.90
16958;DHT22;8595;52.542;11.974;2023-09-30T05:15:11;13.10;99.90
16958;DHT22;8595;52.542;11.974;2023-09-30T05:17:41;13.10;99.90
16958;DHT22;8595;52.542;11.974;2023-09-30T05:20:09;13.20;99.90
16958;DHT22;8595;52.542;11.974;2023-09-30T05:22:38;13.10;99.90
16958;DHT22;8595;52.542;11.974;2023-09-30T05:25:08;13.20;99.90
16958;DHT22;8595;52.542;11.974;2023-09-30T05:27:34;13.10;99.90
16958;DHT22;8595;52.542;11.974;2023-09-30T05:30:01;13.20;99.90
16958;DHT22;8595;52.542;11.974;2023-09-30T05:32:28;13.40;99.90
16958;DHT22;8595;52.542;11.974;2023-09-30T05:34:56;13.50;99.90
16958;DHT22;8595;52.542;11.974;2023-09-30T05:37:25;13.40;99.90
16958;DHT22;8595;52.542;11.974;2023-09-30T05:39:52;13.50;99.90
16958;DHT22;8595;52.542;11.974;2023-09-30T05:42:20;13.50;99.90
16958;DHT22;8595;52.542;11.974;2023-09-30T05:44:47;13.50;99.90
16958;DHT22;8595;52.542;11.974;2023-09-30T05:47:14;13.40;99.90
16958;DHT22;8595;52.542;11.974;2023-09-30T05:49:42;13.40;99.90
16958;DHT22;8595;52.542;11.974;2023-09-30T05:52:09;13.40;99.90
16958;DHT22;8595;52.542;11.974;2023-09-30T05:54:37;13.40;99.90
16958;DHT22;8595;52.542;11.974;2023-09-30T05:57:04;13.40;99.90
16958;DHT22;8595;52.542;11.974;2023-09-30T05:59:33;13.30;99.90
16958;DHT22;8595;52.542;11.974;2023-09-30T06:02:00;13.30;99.90
16958;DHT22;8595;52.542;11.974;2023-09-30T06:04:28;13.50;99.90
16958;DHT22;8595;52.542;11.974;2023-09-30T06:06:56;13.60;99.90
16958;DHT22;8595;52.542;11.974;2023-09-30T06:09:23;13.60;99.90
16958;DHT22;8595;52.542;11.974;2023-09-30T06:11:50;13.80;99.90
16958;DHT22;8595;52.542;11.974;2023-09-30T06:14:17;13.90;99.90
16958;DHT22;8595;52.542;11.974;2023-09-30T06:16:45;13.90;99.90
16958;DHT22;8595;52.542;11.974;2023-09-30T06:19:13;14.10;99.90
16958;DHT22;8595;52.542;11.974;2023-09-30T06:21:40;14.10;99.90
16958;DHT22;8595;52.542;11.974;2023-09-30T06:24:08;14.20;99.90
16958;DHT22;8595;52.542;11.974;2023-09-30T06:26:36;14.20;99.90
16958;DHT22;8595;52.542;11.974;2023-09-30T06:29:02;14.30;99.90
16958;DHT22;8595;52.542;11.974;2023-09-30T06:31:31;14.40;99.90
16958;DHT22;8595;52.542;11.974;2023-09-30T06:34:00;14.40;99.90
16958;DHT22;8595;52.542;11.974;2023-09-30T06:36:27;14.40;99.90
16958;DHT22;8595;52.542;11.974;2023-09-30T06:38:55;14.40;99.90
16958;DHT22;8595;52.542;11.974;2023-09-30T06:41:21;14.40;99.90
16958;DHT22;8595;52.542;11.974;2023-09-30T06:43:49;14.50;99.90
16958;DHT22;8595;52.542;11.974;2023-09-30T06:46:17;14.60;99.90
16958;DHT22;8595;52.542;11.974;2023-09-30T06:48:44;14.50;99.90
16958;DHT22;8595;52.542;11.974;2023-09-30T06:51:14;14.40;99.90
16958;DHT22;8595;52.542;11.974;2023-09-30T06:53:42;14.40;99.90
16958;DHT22;8595;52.542;11.974;2023-09-30T06:56:11;14.30;99.90
16958;DHT22;8595;52.542;11.974;2023-09-30T06:58:38;14.30;99.90
16958;DHT22;8595;52.542;11.974;2023-09-30T07:01:05;14.20;99.90
16958;DHT22;8595;52.542;11.974;2023-09-30T07:03:32;14.20;99.90
16958;DHT22;8595;52.542;11.974;2023-09-30T07:05:59;14.40;99.90
16958;DHT22;8595;52.542;11.974;2023-09-30T07:08:28;14.40;99.90
16958;DHT22;8595;52.542;11.974;2023-09-30T07:10:56;14.50;99.90
16958;DHT22;8595;52.542;11.974;2023-09-30T07:13:23;14.70;99.90
16958;DHT22;8595;52.542;11.974;2023-09-30T07:15:50;14.80;99.90
16958;DHT22;8595;52.542;11.974;2023-09-30T07:18:17;14.80;99.90
16958;DHT22;8595;52.542;11.974;2023-09-30T07:20:45;14.80;99.90
16958;DHT22;8595;52.542;11.974;2023-09-30T07:23:11;15.00;99.90
16958;DHT22;8595;52.542;11.974;2023-09-30T07:25:40;15.30;99.90
16958;DHT22;8595;52.542;11.974;2023-09-30T07:28:09;15.30;99.90
16958;DHT22;8595;52.542;11.974;2023-09-30T07:30:37;15.20;99.90
16958;DHT22;8595;52.542;11.974;2023-09-30T07:33:05;15.10;99.90
16958;DHT22;8595;52.542;11.974;2023-09-30T07:35:32;15.10;99.90
16958;DHT22;8595;52.542;11.974;2023-09-30T07:37:59;15.30;99.90
16958;DHT22;8595;52.542;11.974;2023-09-30T07:40:26;15.30;99.90
16958;DHT22;8595;52.542;11.974;2023-09-30T07:42:54;15.30;99.90
16958;DHT22;8595;52.542;11.974;2023-09-30T07:45:21;15.30;99.90
16958;DHT22;8595;52.542;11.974;2023-09-30T07:47:48;15.60;99.90
16958;DHT22;8595;52.542;11.974;2023-09-30T07:50:16;16.20;99.90
16958;DHT22;8595;52.542;11.974;2023-09-30T07:52:43;16.70;99.90
16958;DHT22;8595;52.542;11.974;2023-09-30T07:55:11;17.30;99.90
16958;DHT22;8595;52.542;11.974;2023-09-30T07:57:41;17.80;99.90
16958;DHT22;8595;52.542;11.974;2023-09-30T08:00:11;17.50;99.90
16958;DHT22;8595;52.542;11.974;2023-09-30T08:02:41;17.70;99.90
16958;DHT22;8595;52.542;11.974;2023-09-30T08:05:09;18.00;99.90
16958;DHT22;8595;52.542;11.974;2023-09-30T08:07:36;18.50;99.90
16958;DHT22;8595;52.542;11.974;2023-09-30T08:10:04;18.50;99.90
16958;DHT22;8595;52.542;11.974;2023-09-30T08:12:32;18.60;99.90
16958;DHT22;8595;52.542;11.974;2023-09-30T08:14:59;18.60;99.90
16958;DHT22;8595;52.542;11.974;2023-09-30T08:17:29;18.70;99.90
16958;DHT22;8595;52.542;11.974;2023-09-30T08:19:56;18.80;99.90
16958;DHT22;8595;52.542;11.974;2023-09-30T08:22:23;18.70;99.90
16958;DHT22;8595;52.542;11.974;2023-09-30T08:24:53;19.00;99.90
16958;DHT22;8595;52.542;11.974;2023-09-30T08:27:19;19.20;99.90
16958;DHT22;8595;52.542;11.974;2023-09-30T08:29:46;19.60;99.90
16958;DHT22;8595;52.542;11.974;2023-09-30T08:32:13;19.70;99.90
16958;DHT22;8595;52.542;11.974;2023-09-30T08:34:41;19.70;99.90
16958;DHT22;8595;52.542;11.974;2023-09-30T08:37:09;19.20;99.90
16958;DHT22;8595;52.542;11.974;2023-09-30T08:39:38;19.40;99.90
16958;DHT22;8595;52.542;11.974;2023-09-30T08:42:08;19.30;99.90
16958;DHT22;8595;52.542;11.974;2023-09-30T08:44:37;20.10;99.90
16958;DHT22;8595;52.542;11.974;2023-09-30T08:47:05;20.60;99.90
16958;DHT22;8595;52.542;11.974;2023-09-30T08:49:34;20.80;99.90
16958;DHT22;8595;52.542;11.974;2023-09-30T08:52:05;20.30;99.90
16958;DHT22;8595;52.542;11.974;2023-09-30T08:54:32;20.70;99.90
16958;DHT22;8595;52.542;11.974;2023-09-30T08:57:00;21.10;99.90
16958;DHT22;8595;52.542;11.974;2023-09-30T08:59:29;20.90;99.90
16958;DHT22;8595;52.542;11.974;2023-09-30T09:01:56;20.60;99.90
16958;DHT22;8595;52.542;11.974;2023-09-30T09:04:24;20.60;99.90
16958;DHT22;8595;52.542;11.974;2023-09-30T09:06:53;20.80;99.90
16958;DHT22;8595;52.542;11.974;2023-09-30T09:09:22;20.50;99.90
16958;DHT22;8595;52.542;11.974;2023-09-30T09:11:49;20.60;99.90
16958;DHT22;8595;52.542;11.974;2023-09-30T09:14:16;20.40;99.90
16958;DHT22;8595;52.542;11.974;2023-09-30T09:16:53;20.80;99.90
16958;DHT22;8595;52.542;11.974;2023-09-30T09:19:20;21.00;99.90
16958;DHT22;8595;52.542;11.974;2023-09-30T09:21:54;21.40;99.90
16958;DHT22;8595;52.542;11.974;2023-09-30T09:24:31;22.20;99.90
16958;DHT22;8595;52.542;11.974;2023-09-30T09:27:04;22.00;99.90
16958;DHT22;8595;52.542;11.974;2023-09-30T09:29:33;21.10;99.90
16958;DHT22;8595;52.542;11.974;2023-09-30T09:32:07;20.90;99.90
16958;DHT22;8595;52.542;11.974;2023-09-30T09:34:34;21.30;99.90
16958;DHT22;8595;52.542;11.974;2023-09-30T09:37:13;21.30;99.90
16958;DHT22;8595;52.542;11.974;2023-09-30T09:39:49;22.00;99.90
16958;DHT22;8595;52.542;11.974;2023-09-30T09:42:24;22.00;99.90
16958;DHT22;8595;52.542;11.974;2023-09-30T09:44:53;22.20;99.90
16958;DHT22;8595;52.542;11.974;2023-09-30T09:47:21;21.90;99.90
16958;DHT22;8595;52.542;11.974;2023-09-30T09:49:50;22.00;99.90
16958;DHT22;8595;52.542;11.974;2023-09-30T09:52:18;21.90;99.90
16958;DHT22;8595;52.542;11.974;2023-09-30T09:54:47;22.20;99.90
16958;DHT22;8595;52.542;11.974;2023-09-30T09:57:16;22.00;99.90
16958;DHT22;8595;52.542;11.974;2023-09-30T09:59:44;21.90;99.90
16958;DHT22;8595;52.542;11.974;2023-09-30T10:02:13;22.00;99.90
16958;DHT22;8595;52.542;11.974;2023-09-30T10:04:41;21.60;99.90
16958;DHT22;8595;52.542;11.974;2023-09-30T10:09:43;21.60;99.90
16958;DHT22;8595;52.542;11.974;2023-09-30T10:12:14;22.10;99.90
16958;DHT22;8595;52.542;11.974;2023-09-30T10:14:41;22.50;99.90
16958;DHT22;8595;52.542;11.974;2023-09-30T10:17:09;22.30;99.90
16958;DHT22;8595;52.542;11.974;2023-09-30T10:19:36;22.20;99.90
16958;DHT22;8595;52.542;11.974;2023-09-30T10:22:23;22.10;99.90
16958;DHT22;8595;52.542;11.974;2023-09-30T10:24:52;22.00;99.90
16958;DHT22;8595;52.542;11.974;2023-09-30T10:27:34;21.80;99.90
16958;DHT22;8595;52.542;11.974;2023-09-30T10:30:09;22.40;99.90
16958;DHT22;8595;52.542;11.974;2023-09-30T10:33:07;22.30;99.90
16958;DHT22;8595;52.542;11.974;2023-09-30T10:35:45;22.50;99.90
16958;DHT22;8595;52.542;11.974;2023-09-30T10:38:40;22.90;99.90
16958;DHT22;8595;52.542;11.974;2023-09-30T10:41:07;22.20;99.90
16958;DHT22;8595;52.542;11.974;2023-09-30T10:43:40;21.80;99.90
16958;DHT22;8595;52.542;11.974;2023-09-30T10:46:32;21.60;99.90
16958;DHT22;8595;52.542;11.974;2023-09-30T10:49:31;22.40;99.90
16958;DHT22;8595;52.542;11.974;2023-09-30T10:51:59;22.50;99.90
16958;DHT22;8595;52.542;11.974;2023-09-30T10:54:27;22.70;99.90
16958;DHT22;8595;52.542;11.974;2023-09-30T10:56:55;22.80;99.90
16958;DHT22;8595;52.542;11.974;2023-09-30T10:59:24;22.90;99.90
16958;DHT22;8595;52.542;11.974;2023-09-30T11:01:51;23.00;99.90
16958;DHT22;8595;52.542;11.974;2023-09-30T11:04:18;23.10;99.90
16958;DHT22;8595;52.542;11.974;2023-09-30T11:06:46;22.80;99.90
16958;DHT22;8595;52.542;11.974;2023-09-30T11:09:15;22.50;99.90
16958;DHT22;8595;52.542;11.974;2023-09-30T11:11:43;22.30;99.90
16958;DHT22;8595;52.542;11.974;2023-09-30T11:14:23;22.50;99.90
16958;DHT22;8595;52.542;11.974;2023-09-30T11:16:51;22.60;99.90
16958;DHT22;8595;52.542;11.974;2023-09-30T11:19:18;23.10;99.90
16958;DHT22;8595;52.542;11.974;2023-09-30T11:21:48;22.80;99.90
16958;DHT22;8595;52.542;11.974;2023-09-30T11:24:15;22.90;99.90
16958;DHT22;8595;52.542;11.974;2023-09-30T11:26:42;22.80;99.90
16958;DHT22;8595;52.542;11.974;2023-09-30T11:29:11;22.60;99.90
16958;DHT22;8595;52.542;11.974;2023-09-30T11:31:40;22.30;99.90
16958;DHT22;8595;52.542;11.974;2023-09-30T11:34:08;22.80;99.90
16958;DHT22;8595;52.542;11.974;2023-09-30T11:36:38;23.40;99.90
16958;DHT22;8595;52.542;11.974;2023-09-30T11:39:06;23.40;99.90
16958;DHT22;8595;52.542;11.974;2023-09-30T11:41:36;23.90;99.90
16958;DHT22;8595;52.542;11.974;2023-09-30T11:44:06;23.90;99.90
16958;DHT22;8595;52.542;11.974;2023-09-30T11:46:49;23.70;99.90
16958;DHT22;8595;52.542;11.974;2023-09-30T11:49:29;23.80;99.90
16958;DHT22;8595;52.542;11.974;2023-09-30T11:51:56;23.70;99.90
16958;DHT22;8595;52.542;11.974;2023-09-30T11:54:29;23.00;99.90
16958;DHT22;8595;52.542;11.974;2023-09-30T11:56:56;23.00;99.90
16958;DHT22;8595;52.542;11.974;2023-09-30T11:59:23;22.70;99.90
16958;DHT22;8595;52.542;11.974;2023-09-30T12:01:51;22.40;99.90
16958;DHT22;8595;52.542;11.974;2023-09-30T12:04:18;22.50;99.90
16958;DHT22;8595;52.542;11.974;2023-09-30T12:06:46;22.70;99.90
16958;DHT22;8595;52.542;11.974;2023-09-30T12:09:13;23.10;99.90
16958;DHT22;8595;52.542;11.974;2023-09-30T12:11:41;23.40;99.90
16958;DHT22;8595;52.542;11.974;2023-09-30T12:14:10;23.10;99.90
16958;DHT22;8595;52.542;11.974;2023-09-30T12:16:38;23.00;99.90
16958;DHT22;8595;52.542;11.974;2023-09-30T12:19:06;23.00;99.90
16958;DHT22;8595;52.542;11.974;2023-09-30T12:21:34;22.80;99.90
16958;DHT22;8595;52.542;11.974;2023-09-30T12:24:03;22.60;99.90
16958;DHT22;8595;52.542;11.974;2023-09-30T12:26:30;21.90;99.90
16958;DHT22;8595;52.542;11.974;2023-09-30T12:28:57;21.40;99.90
16958;DHT22;8595;52.542;11.974;2023-09-30T12:31:24;21.00;99.90
16958;DHT22;8595;52.542;11.974;2023-09-30T12:33:51;20.80;99.90
16958;DHT22;8595;52.542;11.974;2023-09-30T12:36:21;21.10;99.90
16958;DHT22;8595;52.542;11.974;2023-09-30T12:38:49;21.50;99.90
16958;DHT22;8595;52.542;11.974;2023-09-30T12:41:16;21.80;99.90
16958;DHT22;8595;52.542;11.974;2023-09-30T12:43:44;22.10;99.90
16958;DHT22;8595;52.542;11.974;2023-09-30T12:46:11;21.70;99.90
16958;DHT22;8595;52.542;11.974;2023-09-30T12:48:39;21.80;99.90
16958;DHT22;8595;52.542;11.974;2023-09-30T12:51:06;21.90;99.90
16958;DHT22;8595;52.542;11.974;2023-09-30T12:53:35;22.20;99.90
16958;DHT22;8595;52.542;11.974;2023-09-30T12:56:02;22.40;99.90
16958;DHT22;8595;52.542;11.974;2023-09-30T12:58:29;22.50;99.90
16958;DHT22;8595;52.542;11.974;2023-09-30T13:00:56;22.80;99.90
16958;DHT22;8595;52.542;11.974;2023-09-30T13:03:23;23.30;99.90
16958;DHT22;8595;52.542;11.974;2023-09-30T13:05:50;23.50;99.90
16958;DHT22;8595;52.542;11.974;2023-09-30T13:08:17;23.40;99.90
16958;DHT22;8595;52.542;11.974;2023-09-30T13:10:45;22.90;99.90
16958;DHT22;8595;52.542;11.974;2023-09-30T13:13:16;22.50;99.90
16958;DHT22;8595;52.542;11.974;2023-09-30T13:15:43;22.20;99.90
16958;DHT22;8595;52.542;11.974;2023-09-30T13:18:10;22.20;99.90
16958;DHT22;8595;52.542;11.974;2023-09-30T13:20:36;22.70;99.90
16958;DHT22;8595;52.542;11.974;2023-09-30T13:23:03;22.90;99.90
16958;DHT22;8595;52.542;11.974;2023-09-30T13:25:30;23.00;99.90
16958;DHT22;8595;52.542;11.974;2023-09-30T13:27:58;23.20;99.90
16958;DHT22;8595;52.542;11.974;2023-09-30T13:30:25;23.10;99.90
16958;DHT22;8595;52.542;11.974;2023-09-30T13:32:52;23.30;99.90
16958;DHT22;8595;52.542;11.974;2023-09-30T13:35:19;22.90;99.90
16958;DHT22;8595;52.542;11.974;2023-09-30T13:37:45;23.00;99.90
16958;DHT22;8595;52.542;11.974;2023-09-30T13:40:13;23.10;99.90
16958;DHT22;8595;52.542;11.974;2023-09-30T13:42:40;23.10;99.90
16958;DHT22;8595;52.542;11.974;2023-09-30T13:45:10;22.90;99.90
16958;DHT22;8595;52.542;11.974;2023-09-30T13:47:37;23.00;99.90
16958;DHT22;8595;52.542;11.974;2023-09-30T13:50:05;22.60;99.90
16958;DHT22;8595;52.542;11.974;2023-09-30T13:52:33;22.70;99.90
16958;DHT22;8595;52.542;11.974;2023-09-30T13:55:00;22.90;99.90
16958;DHT22;8595;52.542;11.974;2023-09-30T13:57:27;23.10;99.90
16958;DHT22;8595;52.542;11.974;2023-09-30T13:59:54;23.10;99.90
16958;DHT22;8595;52.542;11.974;2023-09-30T14:02:22;23.10;99.90
16958;DHT22;8595;52.542;11.974;2023-09-30T14:04:49;23.00;99.90
16958;DHT22;8595;52.542;11.974;2023-09-30T14:07:17;23.10;99.90
16958;DHT22;8595;52.542;11.974;2023-09-30T14:09:44;23.00;99.90
16958;DHT22;8595;52.542;11.974;2023-09-30T14:12:11;22.50;99.90
16958;DHT22;8595;52.542;11.974;2023-09-30T14:14:38;22.20;99.90
16958;DHT22;8595;52.542;11.974;2023-09-30T14:17:05;22.10;99.90
16958;DHT22;8595;52.542;11.974;2023-09-30T14:19:37;21.70;99.90
16958;DHT22;8595;52.542;11.974;2023-09-30T14:22:06;21.20;99.90
16958;DHT22;8595;52.542;11.974;2023-09-30T14:24:34;21.10;99.90
16958;DHT22;8595;52.542;11.974;2023-09-30T14:27:01;21.20;99.90
16958;DHT22;8595;52.542;11.974;2023-09-30T14:29:28;21.40;99.90
16958;DHT22;8595;52.542;11.974;2023-09-30T14:31:55;21.20;99.90
16958;DHT22;8595;52.542;11.974;2023-09-30T14:34:23;21.00;99.90
16958;DHT22;8595;52.542;11.974;2023-09-30T14:36:51;21.10;99.90
16958;DHT22;8595;52.542;11.974;2023-09-30T14:39:18;20.90;99.90
16958;DHT22;8595;52.542;11.974;2023-09-30T14:41:45;20.90;99.90
16958;DHT22;8595;52.542;11.974;2023-09-30T14:44:12;21.20;99.90
16958;DHT22;8595;52.542;11.974;2023-09-30T14:46:39;21.40;99.90
16958;DHT22;8595;52.542;11.974;2023-09-30T14:49:06;21.30;99.90
16958;DHT22;8595;52.542;11.974;2023-09-30T14:51:35;21.40;99.90
16958;DHT22;8595;52.542;11.974;2023-09-30T14:54:05;21.50;99.90
16958;DHT22;8595;52.542;11.974;2023-09-30T14:56:32;21.50;99.90
16958;DHT22;8595;52.542;11.974;2023-09-30T14:58:58;21.30;99.90
16958;DHT22;8595;52.542;11.974;2023-09-30T15:01:25;21.60;99.90
16958;DHT22;8595;52.542;11.974;2023-09-30T15:03:52;21.60;99.90
16958;DHT22;8595;52.542;11.974;2023-09-30T15:06:19;21.80;99.90
16958;DHT22;8595;52.542;11.974;2023-09-30T15:08:49;21.90;99.90
16958;DHT22;8595;52.542;11.974;2023-09-30T15:11:17;21.80;99.90
16958;DHT22;8595;52.542;11.974;2023-09-30T15:13:44;21.60;99.90
16958;DHT22;8595;52.542;11.974;2023-09-30T15:16:16;21.80;99.90
16958;DHT22;8595;52.542;11.974;2023-09-30T15:18:44;21.70;99.90
16958;DHT22;8595;52.542;11.974;2023-09-30T15:21:12;21.60;99.90
16958;DHT22;8595;52.542;11.974;2023-09-30T15:23:39;21.50;99.90
16958;DHT22;8595;52.542;11.974;2023-09-30T15:26:06;21.50;99.90
16958;DHT22;8595;52.542;11.974;2023-09-30T15:28:34;21.50;99.90
16958;DHT22;8595;52.542;11.974;2023-09-30T15:31:01;21.30;99.90
16958;DHT22;8595;52.542;11.974;2023-09-30T15:33:28;21.30;99.90
16958;DHT22;8595;52.542;11.974;2023-09-30T15:35:55;21.40;99.90
16958;DHT22;8595;52.542;11.974;2023-09-30T15:38:22;21.40;99.90
16958;DHT22;8595;52.542;11.974;2023-09-30T15:40:53;21.20;99.90